Time;durP1;ratioP1;P1;durP2;ratioP2;P2;SDS_P1;SDS_P2;PMS_P1;PMS_P2;Temp;Humidity;BMP_temperature;BMP_pressure;BME280_temperature;BME280_humidity;BME280_pressure;Samples;Min_cycle;Max_cycle;Signal;HPM_P1;HPM_P2
2021/09/07 00:01:25;;;;;;;9.13;6.05;;;22.00;84.40;;;;;;5073540;28;20021;-70
2021/09/07 00:03:51;;;;;;;9.18;6.93;;;22.00;84.00;;;;;;5073187;28;20025;-72
2021/09/07 00:06:17;;;;;;;8.77;5.90;;;21.90;84.60;;;;;;5073025;28;20109;-70
2021/09/07 00:08:46;;;;;;;8.10;6.10;;;21.90;84.70;;;;;;5073437;28;20036;-71
2021/09/07 00:11:12;;;;;;;8.57;5.70;;;21.90;84.00;;;;;;5073145;28;20070;-70
2021/09/07 00:13:37;;;;;;;10.68;6.68;;;21.80;84.70;;;;;;5073422;28;20024;-70
2021/09/07 00:16:03;;;;;;;10.20;6.38;;;21.60;85.50;;;;;;5072958;28;20029;-70
2021/09/07 00:18:30;;;;;;;8.38;5.90;;;21.40;86.40;;;;;;5073074;28;20028;-71
2021/09/07 00:20:55;;;;;;;10.57;6.45;;;21.40;86.20;;;;;;5073034;28;20501;-72
2021/09/07 00:23:21;;;;;;;9.60;5.97;;;21.50;86.00;;;;;;5072950;28;20029;-71
2021/09/07 00:25:47;;;;;;;8.02;6.10;;;21.60;85.00;;;;;;5073261;28;20020;-71
2021/09/07 00:28:13;;;;;;;8.93;6.03;;;21.70;84.40;;;;;;5072987;28;20478;-71
2021/09/07 00:30:38;;;;;;;9.15;5.75;;;21.80;83.80;;;;;;5073191;28;20021;-70
2021/09/07 00:33:04;;;;;;;8.52;6.18;;;21.90;83.00;;;;;;5073200;28;20028;-71
2021/09/07 00:35:31;;;;;;;10.77;5.53;;;21.80;84.20;;;;;;5072850;28;20070;-71
2021/09/07 00:37:57;;;;;;;7.05;5.50;;;21.80;83.90;;;;;;5072905;28;20034;-71
2021/09/07 00:40:23;;;;;;;9.40;5.78;;;21.70;83.20;;;;;;5072877;28;20497;-71
2021/09/07 00:42:48;;;;;;;7.97;5.97;;;21.60;83.70;;;;;;5072795;28;20024;-71
2021/09/07 00:45:14;;;;;;;8.05;5.72;;;21.70;83.00;;;;;;5072811;28;20066;-70
2021/09/07 00:47:41;;;;;;;8.77;5.88;;;21.70;83.10;;;;;;5073373;28;20025;-71
2021/09/07 00:50:07;;;;;;;7.43;5.97;;;21.70;82.70;;;;;;5072778;28;20019;-71
2021/09/07 00:52:34;;;;;;;8.65;5.65;;;21.60;83.70;;;;;;5073351;28;20504;-71
2021/09/07 00:55:01;;;;;;;9.18;5.75;;;21.50;83.00;;;;;;5072766;28;20099;-72
2021/09/07 00:57:29;;;;;;;7.43;5.10;;;21.50;82.60;;;;;;5072723;28;20040;-70
2021/09/07 00:59:55;;;;;;;10.20;5.45;;;21.40;82.70;;;;;;5071376;28;20086;-71
2021/09/07 01:02:21;;;;;;;7.68;5.72;;;21.40;82.90;;;;;;5072591;28;20036;-71
2021/09/07 01:04:47;;;;;;;9.77;6.05;;;21.40;82.70;;;;;;5073242;28;20025;-71
2021/09/07 01:07:13;;;;;;;9.43;5.53;;;21.40;83.10;;;;;;5072612;28;20454;-71
2021/09/07 01:09:39;;;;;;;10.65;5.55;;;21.40;82.20;;;;;;5072599;28;20028;-70
2021/09/07 01:12:07;;;;;;;9.23;5.97;;;21.50;81.90;;;;;;5072585;28;20032;-70
2021/09/07 01:14:36;;;;;;;10.50;6.28;;;21.30;82.30;;;;;;5072836;28;20410;-71
2021/09/07 01:17:01;;;;;;;9.10;6.22;;;21.30;82.90;;;;;;5072788;28;20028;-71
2021/09/07 01:19:29;;;;;;;10.38;6.05;;;21.30;83.00;;;;;;5072479;28;20482;-71
2021/09/07 01:21:55;;;;;;;9.35;6.22;;;21.20;83.10;;;;;;5072445;28;20029;-71
2021/09/07 01:24:25;;;;;;;10.75;5.70;;;21.10;83.40;;;;;;5072408;28;20016;-71
2021/09/07 01:26:51;;;;;;;8.27;5.90;;;21.20;82.80;;;;;;5072462;28;20024;-71
2021/09/07 01:29:17;;;;;;;10.85;5.90;;;21.10;83.00;;;;;;5074223;28;20063;-71
2021/09/07 01:31:43;;;;;;;7.35;5.40;;;21.10;83.70;;;;;;5074781;28;20020;-71
2021/09/07 01:34:09;;;;;;;9.32;5.68;;;21.00;84.00;;;;;;5075904;28;20439;-71
2021/09/07 01:36:35;;;;;;;8.07;5.47;;;21.10;83.40;;;;;;5076092;28;20032;-70
2021/09/07 01:39:01;;;;;;;9.48;5.90;;;21.10;83.00;;;;;;5075789;28;20386;-71
2021/09/07 01:41:26;;;;;;;7.15;5.50;;;21.20;83.70;;;;;;5075793;28;20107;-71
2021/09/07 01:43:52;;;;;;;7.40;5.40;;;21.30;83.30;;;;;;5075669;28;20035;-71
2021/09/07 01:46:18;;;;;;;6.88;5.10;;;21.30;82.90;;;;;;5075734;28;20054;-71
2021/09/07 01:48:44;;;;;;;8.10;5.38;;;21.40;82.80;;;;;;5075647;28;20013;-72
2021/09/07 01:51:10;;;;;;;9.00;5.40;;;21.30;83.00;;;;;;5075569;28;20470;-71
2021/09/07 01:53:36;;;;;;;8.18;5.47;;;21.30;81.60;;;;;;5075528;28;20036;-71
2021/09/07 01:56:01;;;;;;;7.13;5.15;;;21.20;81.00;;;;;;5075787;28;20032;-70
2021/09/07 01:58:27;;;;;;;7.63;5.30;;;21.20;81.90;;;;;;5075414;28;20111;-71
2021/09/07 02:00:53;;;;;;;7.15;5.13;;;21.20;81.40;;;;;;5075689;28;20064;-71
2021/09/07 02:03:18;;;;;;;9.68;5.65;;;21.10;81.10;;;;;;5075552;28;20025;-71
2021/09/07 02:05:44;;;;;;;7.85;5.40;;;21.10;81.60;;;;;;5075574;28;20028;-71
2021/09/07 02:08:10;;;;;;;7.82;5.43;;;20.90;81.80;;;;;;5075159;28;20041;-70
2021/09/07 02:10:36;;;;;;;8.90;5.72;;;20.90;82.50;;;;;;5075243;28;20099;-71
2021/09/07 02:13:02;;;;;;;10.90;5.95;;;20.90;82.00;;;;;;5075205;28;20028;-72
2021/09/07 02:15:29;;;;;;;9.32;6.18;;;20.80;82.80;;;;;;5073846;28;20459;-72
2021/09/07 02:17:55;;;;;;;10.45;5.50;;;20.80;83.20;;;;;;5075078;28;20044;-71
2021/09/07 02:20:21;;;;;;;9.00;6.03;;;20.90;82.30;;;;;;5075587;28;20031;-70
2021/09/07 02:22:46;;;;;;;9.43;6.18;;;21.00;82.60;;;;;;5074932;28;20025;-71
2021/09/07 02:25:12;;;;;;;8.07;5.20;;;21.10;82.60;;;;;;5075209;28;20183;-69
2021/09/07 02:27:38;;;;;;;8.52;5.57;;;21.10;80.60;;;;;;5075147;28;20016;-71
2021/09/07 02:30:06;;;;;;;8.95;5.93;;;21.10;82.20;;;;;;5074806;28;20029;-71
2021/09/07 02:32:31;;;;;;;9.15;5.70;;;21.20;82.20;;;;;;5075023;28;20021;-72
2021/09/07 02:34:57;;;;;;;8.95;5.82;;;21.20;82.00;;;;;;5074772;28;20113;-71
2021/09/07 02:37:23;;;;;;;10.70;6.28;;;21.30;81.30;;;;;;5075208;28;20020;-70
2021/09/07 02:39:48;;;;;;;8.95;5.50;;;21.20;81.60;;;;;;5074621;28;20107;-70
2021/09/07 02:42:14;;;;;;;9.70;6.57;;;21.30;81.20;;;;;;5074779;28;20027;-71
2021/09/07 02:44:40;;;;;;;7.88;5.95;;;21.30;81.40;;;;;;5074510;28;20023;-71
2021/09/07 02:47:05;;;;;;;8.30;5.90;;;21.30;81.10;;;;;;5074787;28;20020;-71
2021/09/07 02:49:31;;;;;;;8.85;6.28;;;21.20;81.10;;;;;;5074413;28;20138;-72
2021/09/07 02:51:57;;;;;;;10.27;6.10;;;21.20;80.80;;;;;;5074372;28;20020;-71
2021/09/07 02:54:24;;;;;;;10.80;6.30;;;21.10;81.10;;;;;;5074306;28;20115;-71
2021/09/07 02:56:51;;;;;;;7.85;5.90;;;21.10;81.30;;;;;;5074316;28;20059;-70
2021/09/07 02:59:16;;;;;;;9.65;6.32;;;21.10;81.00;;;;;;5074145;28;20051;-71
2021/09/07 03:01:42;;;;;;;9.15;6.60;;;20.80;82.50;;;;;;5074178;28;20474;-71
2021/09/07 03:04:08;;;;;;;8.48;6.70;;;20.60;83.30;;;;;;5074054;28;20437;-71
2021/09/07 03:06:34;;;;;;;11.00;6.40;;;20.60;83.90;;;;;;5074356;28;20052;-70
2021/09/07 03:09:00;;;;;;;9.95;6.68;;;20.50;84.00;;;;;;5074114;28;20017;-70
2021/09/07 03:11:25;;;;;;;10.75;6.50;;;20.60;83.90;;;;;;5074065;28;20126;-70
2021/09/07 03:13:51;;;;;;;9.35;6.55;;;20.30;84.70;;;;;;5073987;28;20402;-70
2021/09/07 03:16:17;;;;;;;7.72;5.75;;;20.20;85.70;;;;;;5073889;28;20383;-71
2021/09/07 03:18:42;;;;;;;9.02;6.30;;;20.20;86.00;;;;;;5073864;28;20032;-71
2021/09/07 03:21:08;;;;;;;9.05;6.15;;;20.20;85.30;;;;;;5073822;28;20025;-72
2021/09/07 03:23:34;;;;;;;9.10;6.72;;;20.30;85.10;;;;;;5073691;28;20029;-71
2021/09/07 03:25:59;;;;;;;10.75;6.47;;;20.20;84.70;;;;;;5073762;28;20517;-71
2021/09/07 03:28:25;;;;;;;9.00;6.03;;;20.30;84.40;;;;;;5074244;28;20082;-70
2021/09/07 03:30:51;;;;;;;8.77;5.68;;;20.40;84.40;;;;;;5073664;28;20016;-70
2021/09/07 03:33:17;;;;;;;9.57;6.07;;;20.50;83.90;;;;;;5073659;28;20068;-71
2021/09/07 03:35:44;;;;;;;7.55;6.03;;;20.50;84.30;;;;;;5073613;28;20032;-71
2021/09/07 03:38:09;;;;;;;8.13;5.93;;;20.50;83.90;;;;;;5073867;28;20450;-71
2021/09/07 03:40:35;;;;;;;11.82;6.90;;;20.60;83.50;;;;;;5073531;28;20036;-71
2021/09/07 03:43:01;;;;;;;8.35;6.03;;;20.70;83.60;;;;;;5073933;28;20165;-71
2021/09/07 03:45:27;;;;;;;7.75;6.00;;;20.70;83.10;;;;;;5073712;28;20471;-71
2021/09/07 03:47:52;;;;;;;8.98;5.82;;;20.70;83.30;;;;;;5073440;28;20435;-71
2021/09/07 03:50:18;;;;;;;10.57;6.13;;;20.70;83.50;;;;;;5073387;28;20021;-71
2021/09/07 03:52:44;;;;;;;9.15;5.97;;;20.70;83.20;;;;;;5072695;28;20417;-71
2021/09/07 03:55:10;;;;;;;8.85;6.50;;;20.70;82.60;;;;;;5073335;28;20482;-71
2021/09/07 03:57:36;;;;;;;9.57;5.93;;;20.60;82.90;;;;;;5073595;28;20435;-72
2021/09/07 04:00:03;;;;;;;8.60;6.00;;;20.50;82.80;;;;;;5073212;28;20109;-70
2021/09/07 04:02:29;;;;;;;9.00;6.20;;;20.40;83.10;;;;;;5073418;28;20363;-69
2021/09/07 04:04:55;;;;;;;9.82;5.97;;;20.40;83.00;;;;;;5073505;28;20017;-72
2021/09/07 04:07:20;;;;;;;10.57;6.72;;;20.30;83.10;;;;;;5073167;28;20177;-71
2021/09/07 04:09:46;;;;;;;10.70;6.05;;;20.30;83.70;;;;;;5073493;28;20021;-70
2021/09/07 04:12:12;;;;;;;10.25;6.03;;;20.20;83.30;;;;;;5073189;28;20047;-70
2021/09/07 04:14:38;;;;;;;10.32;6.78;;;20.10;84.10;;;;;;5073090;28;20020;-71
2021/09/07 04:17:05;;;;;;;8.13;6.32;;;20.20;83.70;;;;;;5073664;28;20077;-72
2021/09/07 04:19:32;;;;;;;10.95;6.38;;;20.20;83.90;;;;;;5073108;28;20124;-70
2021/09/07 04:21:58;;;;;;;9.45;6.63;;;20.00;84.80;;;;;;5071803;28;20028;-70
2021/09/07 04:24:23;;;;;;;10.32;6.15;;;20.00;84.80;;;;;;5072968;28;20051;-71
2021/09/07 04:26:49;;;;;;;12.98;6.22;;;20.20;84.20;;;;;;5073016;28;20032;-71
2021/09/07 04:29:15;;;;;;;8.95;6.53;;;20.20;83.80;;;;;;5072980;28;20012;-71
2021/09/07 04:31:42;;;;;;;9.05;6.93;;;20.30;83.90;;;;;;5073190;28;20031;-71
2021/09/07 04:34:08;;;;;;;8.68;6.20;;;20.30;83.60;;;;;;5073189;28;20025;-71
2021/09/07 04:36:34;;;;;;;9.25;5.72;;;20.30;83.60;;;;;;5072884;28;20090;-71
2021/09/07 04:38:59;;;;;;;8.88;5.32;;;20.20;82.80;;;;;;5073143;28;20607;-70
2021/09/07 04:41:25;;;;;;;9.90;5.85;;;20.20;81.90;;;;;;5073143;28;20107;-70
2021/09/07 04:43:51;;;;;;;10.13;6.35;;;20.20;82.20;;;;;;5072784;28;20016;-71
2021/09/07 04:46:17;;;;;;;8.82;5.75;;;20.20;82.00;;;;;;5072793;28;20066;-71
2021/09/07 04:48:43;;;;;;;9.57;5.93;;;20.20;82.70;;;;;;5073326;28;20013;-71
2021/09/07 04:51:09;;;;;;;16.20;6.47;;;20.20;82.00;;;;;;5072777;28;20031;-71
2021/09/07 04:53:34;;;;;;;13.07;6.15;;;20.30;82.10;;;;;;5072704;28;20025;-72
2021/09/07 04:56:01;;;;;;;14.52;7.05;;;20.30;82.70;;;;;;5072982;28;20028;-71
2021/09/07 04:58:27;;;;;;;8.00;5.90;;;20.30;82.30;;;;;;5072925;28;20017;-71
2021/09/07 05:00:52;;;;;;;11.18;6.10;;;20.20;81.40;;;;;;5072709;28;20452;-71
2021/09/07 05:03:18;;;;;;;7.60;5.20;;;20.20;81.20;;;;;;5074530;28;20097;-71
2021/09/07 05:05:44;;;;;;;8.63;5.30;;;20.00;80.20;;;;;;5076433;28;20025;-72
2021/09/07 05:08:09;;;;;;;9.85;5.85;;;19.80;81.30;;;;;;5076151;28;20086;-70
2021/09/07 05:10:35;;;;;;;11.60;7.13;;;19.70;81.60;;;;;;5076543;28;20024;-71
2021/09/07 05:13:01;;;;;;;9.25;6.35;;;19.70;83.30;;;;;;5076890;28;20017;-71
2021/09/07 05:15:26;;;;;;;9.48;6.70;;;19.70;82.50;;;;;;5076521;28;20078;-70
2021/09/07 05:17:52;;;;;;;11.60;6.07;;;19.70;81.90;;;;;;5076246;28;20024;-71
2021/09/07 05:20:18;;;;;;;9.80;6.75;;;19.60;83.00;;;;;;5076126;28;20544;-72
2021/09/07 05:22:45;;;;;;;9.75;5.80;;;19.50;82.90;;;;;;5076031;28;20437;-71
2021/09/07 05:25:11;;;;;;;9.57;6.03;;;19.40;82.60;;;;;;5076106;28;20074;-70
2021/09/07 05:27:37;;;;;;;10.05;6.00;;;19.40;83.30;;;;;;5076042;28;20020;-70
2021/09/07 05:30:09;;;;;;;9.25;6.43;;;19.40;83.10;;;;;;5076002;28;20063;-71
2021/09/07 05:32:35;;;;;;;8.35;6.00;;;19.40;83.40;;;;;;5076562;28;20073;-72
2021/09/07 05:35:01;;;;;;;8.63;6.00;;;19.40;83.30;;;;;;5074663;28;20385;-71
2021/09/07 05:37:26;;;;;;;9.63;5.78;;;19.40;82.70;;;;;;5075835;28;20378;-70
2021/09/07 05:39:52;;;;;;;11.50;6.70;;;19.50;82.90;;;;;;5076111;28;20032;-70
2021/09/07 05:42:17;;;;;;;10.13;7.28;;;19.30;83.50;;;;;;5076002;28;20481;-71
2021/09/07 05:44:43;;;;;;;12.35;7.13;;;19.30;84.70;;;;;;5075887;28;20119;-70
2021/09/07 05:47:09;;;;;;;12.93;7.13;;;19.20;85.70;;;;;;5075953;28;20065;-72
2021/09/07 05:49:35;;;;;;;13.93;6.90;;;19.30;85.40;;;;;;5075961;28;20025;-71
2021/09/07 05:52:00;;;;;;;9.93;6.25;;;19.30;84.80;;;;;;5075853;28;20016;-72
2021/09/07 05:54:26;;;;;;;8.55;6.38;;;19.30;83.30;;;;;;5075887;28;20031;-70
2021/09/07 05:56:54;;;;;;;7.15;5.43;;;19.30;81.80;;;;;;5075527;28;20024;-71
2021/09/07 05:59:19;;;;;;;9.25;6.10;;;19.20;81.20;;;;;;5074133;28;20033;-71
2021/09/07 06:01:45;;;;;;;10.98;6.25;;;19.30;81.20;;;;;;5075354;28;20020;-71
2021/09/07 06:04:11;;;;;;;8.63;5.75;;;19.30;80.80;;;;;;5075303;28;20109;-71
2021/09/07 06:06:36;;;;;;;8.95;6.53;;;19.20;83.90;;;;;;5075412;28;20474;-71
2021/09/07 06:09:02;;;;;;;8.60;6.35;;;19.10;85.10;;;;;;5075576;28;20390;-71
2021/09/07 06:11:28;;;;;;;10.60;6.10;;;19.10;85.40;;;;;;5075248;28;20017;-71
2021/09/07 06:13:54;;;;;;;12.05;6.32;;;19.10;85.50;;;;;;5075037;28;20082;-71
2021/09/07 06:16:21;;;;;;;11.00;6.38;;;19.10;84.90;;;;;;5074931;28;20024;-70
2021/09/07 06:18:47;;;;;;;12.60;6.30;;;19.20;84.80;;;;;;5075128;28;20453;-70
2021/09/07 06:21:13;;;;;;;11.52;6.93;;;19.20;84.50;;;;;;5075063;28;20498;-72
2021/09/07 06:23:39;;;;;;;10.32;6.20;;;19.30;84.80;;;;;;5075189;28;20024;-71
2021/09/07 06:26:05;;;;;;;10.77;6.88;;;19.20;84.70;;;;;;5074944;28;20024;-72
2021/09/07 06:28:30;;;;;;;10.77;6.05;;;19.20;85.20;;;;;;5075111;28;20526;-72
2021/09/07 06:30:56;;;;;;;14.07;6.28;;;19.30;84.70;;;;;;5074799;28;20048;-72
2021/09/07 06:33:22;;;;;;;10.82;5.88;;;19.30;84.90;;;;;;5075034;28;20396;-71
2021/09/07 06:35:47;;;;;;;9.00;6.20;;;19.40;85.30;;;;;;5075060;28;20024;-72
2021/09/07 06:38:13;;;;;;;10.38;6.35;;;19.40;84.20;;;;;;5075256;28;20031;-70
2021/09/07 06:40:40;;;;;;;10.32;6.10;;;19.40;85.00;;;;;;5074980;28;20530;-71
2021/09/07 06:43:06;;;;;;;11.10;6.35;;;19.60;84.60;;;;;;5073241;28;20035;-75
2021/09/07 06:45:32;;;;;;;10.13;6.20;;;19.90;83.50;;;;;;5074811;28;20377;-69
2021/09/07 06:47:58;;;;;;;11.20;6.80;;;20.20;82.40;;;;;;5074481;28;20542;-71
2021/09/07 06:50:23;;;;;;;12.75;6.25;;;20.20;82.40;;;;;;5074687;28;20052;-71
2021/09/07 06:52:49;;;;;;;10.50;6.93;;;20.40;82.40;;;;;;5074876;28;20060;-76
2021/09/07 06:55:15;;;;;;;11.30;6.47;;;20.70;81.10;;;;;;5073225;28;20071;-78
2021/09/07 06:57:40;;;;;;;13.25;6.80;;;20.90;80.40;;;;;;5073321;28;20136;-75
2021/09/07 07:00:07;;;;;;;16.88;7.25;;;21.10;78.80;;;;;;5073415;28;20048;-77
2021/09/07 07:02:39;;;;;;;11.43;6.45;;;21.30;77.80;;;;;;5054178;28;20056;-76
2021/09/07 07:05:06;;;;;;;11.85;6.70;;;21.60;77.70;;;;;;5055234;28;20025;-78
2021/09/07 07:07:32;;;;;;;8.43;5.95;;;21.80;77.20;;;;;;5073242;28;20457;-76
2021/09/07 07:09:57;;;;;;;11.52;6.00;;;22.00;76.00;;;;;;5073656;28;20029;-76
2021/09/07 07:12:23;;;;;;;12.02;7.10;;;22.10;75.40;;;;;;5073485;28;20032;-75
2021/09/07 07:14:49;;;;;;;9.23;5.75;;;22.10;75.60;;;;;;5074180;28;20032;-76
2021/09/07 07:17:14;;;;;;;12.35;6.63;;;22.00;75.80;;;;;;5073184;28;20389;-74
2021/09/07 07:19:40;;;;;;;12.55;5.97;;;22.00;75.50;;;;;;5072560;28;20032;-78
2021/09/07 07:22:05;;;;;;;9.93;6.18;;;21.90;75.90;;;;;;5073598;28;20039;-77
2021/09/07 07:24:31;;;;;;;10.98;5.82;;;21.70;76.90;;;;;;5072094;28;20123;-80
2021/09/07 07:26:57;;;;;;;11.35;6.43;;;21.90;76.10;;;;;;5070059;28;20020;-78
2021/09/07 07:29:23;;;;;;;12.00;5.78;;;22.20;75.90;;;;;;5073166;28;20083;-78
2021/09/07 07:31:48;;;;;;;10.68;5.70;;;22.50;73.40;;;;;;5073239;28;20505;-77
2021/09/07 07:34:14;;;;;;;13.68;5.85;;;22.90;72.60;;;;;;5073870;28;20047;-75
2021/09/07 07:36:40;;;;;;;9.00;5.75;;;23.30;69.80;;;;;;5073129;28;20025;-79
2021/09/07 07:39:06;;;;;;;13.27;5.60;;;23.70;69.50;;;;;;5073784;28;20547;-77
2021/09/07 07:41:31;;;;;;;9.13;6.18;;;24.00;67.80;;;;;;5073410;28;20024;-77
2021/09/07 07:43:57;;;;;;;9.57;5.40;;;24.00;68.70;;;;;;5068778;28;20391;-75
2021/09/07 07:46:23;;;;;;;10.88;5.32;;;24.20;68.20;;;;;;5067686;28;20064;-76
2021/09/07 07:48:48;;;;;;;13.23;5.95;;;24.40;65.70;;;;;;5073353;28;20469;-76
2021/09/07 07:51:14;;;;;;;10.65;5.45;;;24.70;64.50;;;;;;5073086;28;20099;-79
2021/09/07 07:53:40;;;;;;;10.18;5.80;;;24.90;65.00;;;;;;5072699;28;20108;-76
2021/09/07 07:56:07;;;;;;;13.10;5.43;;;25.40;61.50;;;;;;5072766;28;20033;-75
2021/09/07 07:58:33;;;;;;;10.95;5.07;;;25.40;61.30;;;;;;5072657;28;20035;-77
2021/09/07 08:00:59;;;;;;;13.40;5.10;;;25.30;63.10;;;;;;5072090;28;20024;-73
2021/09/07 08:03:25;;;;;;;9.40;5.03;;;25.40;62.00;;;;;;5072652;28;20399;-74
2021/09/07 08:05:51;;;;;;;8.50;5.13;;;25.40;61.30;;;;;;5073029;28;20153;-73
2021/09/07 08:08:17;;;;;;;10.65;5.35;;;25.40;61.40;;;;;;5072727;28;20045;-73
2021/09/07 08:10:43;;;;;;;10.35;5.15;;;25.50;62.10;;;;;;5072892;28;20028;-73
2021/09/07 08:13:08;;;;;;;11.43;5.00;;;25.80;61.10;;;;;;5073252;28;20032;-73
2021/09/07 08:15:34;;;;;;;8.77;4.80;;;26.30;59.30;;;;;;5073668;28;20021;-73
2021/09/07 08:18:01;;;;;;;9.35;5.15;;;26.60;59.50;;;;;;5073150;28;20029;-74
2021/09/07 08:20:29;;;;;;;9.98;4.85;;;26.90;58.00;;;;;;5073379;28;20021;-73
2021/09/07 08:22:55;;;;;;;13.00;5.15;;;27.30;57.50;;;;;;5072589;28;20081;-74
2021/09/07 08:25:20;;;;;;;7.53;4.63;;;27.20;56.10;;;;;;5073312;28;20052;-74
2021/09/07 08:27:46;;;;;;;7.07;5.03;;;27.20;55.90;;;;;;5073285;28;20028;-73
2021/09/07 08:30:12;;;;;;;8.48;4.90;;;27.30;56.10;;;;;;5072550;28;20025;-73
2021/09/07 08:32:41;;;;;;;8.73;4.93;;;27.50;56.70;;;;;;5073230;28;20082;-73
2021/09/07 08:35:11;;;;;;;12.38;5.70;;;27.50;54.70;;;;;;5073020;28;20090;-73
2021/09/07 08:37:38;;;;;;;11.55;5.10;;;27.40;54.60;;;;;;5074312;28;20037;-73
2021/09/07 08:40:05;;;;;;;7.80;4.85;;;27.10;55.50;;;;;;5077055;28;20024;-73
2021/09/07 08:42:33;;;;;;;8.52;4.50;;;27.10;55.70;;;;;;5076212;28;20032;-73
2021/09/07 08:45:00;;;;;;;7.30;4.57;;;26.80;56.40;;;;;;5076224;28;20104;-74
2021/09/07 08:47:26;;;;;;;8.35;4.68;;;27.10;55.70;;;;;;5075416;28;20016;-74
2021/09/07 08:49:52;;;;;;;9.02;4.80;;;27.70;54.80;;;;;;5075134;28;20023;-74
2021/09/07 08:52:19;;;;;;;9.48;4.65;;;28.10;54.00;;;;;;5074848;28;20387;-74
2021/09/07 08:54:46;;;;;;;10.45;4.80;;;28.30;53.20;;;;;;5074763;28;20436;-74
2021/09/07 08:57:12;;;;;;;9.80;4.90;;;28.30;53.30;;;;;;5074694;28;20482;-74
2021/09/07 08:59:38;;;;;;;8.15;4.90;;;28.70;52.50;;;;;;5074222;28;20386;-78
2021/09/07 09:02:16;;;;;;;8.20;4.60;;;28.70;52.40;;;;;;5075624;28;20039;-76
2021/09/07 09:04:50;;;;;;;8.30;4.65;;;28.70;52.40;;;;;;5069058;28;20178;-78
2021/09/07 09:07:18;;;;;;;10.57;4.35;;;28.50;52.70;;;;;;5075816;28;20040;-81
2021/09/07 09:09:45;;;;;;;8.52;4.90;;;28.90;51.80;;;;;;5075924;28;20016;-77
2021/09/07 09:12:11;;;;;;;9.27;4.63;;;29.30;51.80;;;;;;5075607;28;20027;-78
2021/09/07 09:14:47;;;;;;;8.38;4.30;;;29.90;49.80;;;;;;5076251;28;20394;-76
2021/09/07 09:17:23;;;;;;;9.93;4.60;;;30.40;49.20;;;;;;5076370;28;20056;-79
2021/09/07 09:19:59;;;;;;;10.00;4.50;;;30.20;48.80;;;;;;5076245;28;20021;-77
2021/09/07 09:22:48;;;;;;;9.82;4.78;;;29.90;50.50;;;;;;5075756;28;20517;-77
2021/09/07 09:25:20;;;;;;;9.93;4.50;;;30.70;49.30;;;;;;5076366;28;20036;-79
2021/09/07 09:27:46;;;;;;;7.50;4.43;;;31.20;48.10;;;;;;5075178;28;20043;-77
2021/09/07 09:30:12;;;;;;;7.35;4.47;;;30.40;48.50;;;;;;5060199;28;20025;-79
2021/09/07 09:32:59;;;;;;;9.57;4.80;;;30.10;48.50;;;;;;5063956;28;20035;-80
2021/09/07 09:35:25;;;;;;;7.05;4.20;;;29.20;50.30;;;;;;5067354;28;20494;-79
2021/09/07 09:38:09;;;;;;;8.35;4.60;;;28.70;50.90;;;;;;5070638;28;20059;-80
2021/09/07 09:40:34;;;;;;;12.23;5.38;;;28.10;53.70;;;;;;5073644;28;20032;-79
2021/09/07 09:43:26;;;;;;;9.23;4.40;;;28.30;53.20;;;;;;5055514;28;20040;-79
2021/09/07 09:45:53;;;;;;;7.53;4.40;;;28.50;52.40;;;;;;5076008;28;20028;-79
2021/09/07 09:48:29;;;;;;;10.52;4.45;;;28.80;51.60;;;;;;5065126;28;20045;-80
2021/09/07 09:50:58;;;;;;;6.68;4.45;;;28.80;50.40;;;;;;5062026;28;20151;-80
2021/09/07 09:53:25;;;;;;;5.95;4.13;;;28.90;51.00;;;;;;5054721;28;20033;-78
2021/09/07 09:55:53;;;;;;;6.63;3.80;;;28.60;50.70;;;;;;5058514;28;20019;-79
2021/09/07 09:58:20;;;;;;;7.13;3.90;;;28.40;50.40;;;;;;5072438;28;20240;-79
2021/09/07 10:00:48;;;;;;;8.00;3.95;;;28.30;49.80;;;;;;5073183;28;20101;-79
2021/09/07 10:03:15;;;;;;;8.40;3.70;;;28.60;49.00;;;;;;5073295;28;20490;-82
2021/09/07 10:05:42;;;;;;;10.10;4.07;;;28.60;49.70;;;;;;5073407;28;20027;-81
2021/09/07 10:08:11;;;;;;;10.57;4.07;;;28.70;48.10;;;;;;5073491;28;20047;-82
2021/09/07 10:10:40;;;;;;;7.70;4.13;;;28.90;47.90;;;;;;5075577;28;20028;-84
2021/09/07 10:13:08;;;;;;;10.52;4.32;;;28.80;48.50;;;;;;5075247;28;20436;-81
2021/09/07 10:15:43;;;;;;;7.57;4.30;;;28.60;48.30;;;;;;5073874;28;20063;-74
2021/09/07 10:18:34;;;;;;;8.20;4.22;;;28.70;48.30;;;;;;5074561;28;20027;-73
2021/09/07 10:26:17;;;;;;;9.38;4.10;;;29.50;47.60;;;;;;5075075;28;20020;-73
2021/09/07 10:28:45;;;;;;;7.78;4.25;;;30.00;47.00;;;;;;5075519;28;20112;-73
2021/09/07 10:31:10;;;;;;;7.57;4.50;;;29.80;46.20;;;;;;5075388;28;20027;-73
2021/09/07 10:33:40;;;;;;;7.90;4.15;;;29.60;48.60;;;;;;5075367;28;20025;-74
2021/09/07 10:36:06;;;;;;;12.98;4.53;;;29.80;47.80;;;;;;5075359;28;20402;-74
2021/09/07 10:38:48;;;;;;;6.82;3.80;;;29.90;46.30;;;;;;5074732;28;20024;-74
2021/09/07 10:41:34;;;;;;;15.57;4.28;;;29.20;47.90;;;;;;5074664;28;20032;-73
2021/09/07 10:44:06;;;;;;;8.98;3.80;;;29.00;48.50;;;;;;5061123;28;20041;-73
2021/09/07 10:46:47;;;;;;;6.68;4.30;;;29.00;49.50;;;;;;5073242;28;20371;-72
2021/09/07 10:49:36;;;;;;;6.10;3.55;;;29.10;47.70;;;;;;5074471;28;20487;-73
2021/09/07 10:52:09;;;;;;;8.45;4.15;;;28.60;50.10;;;;;;5072959;28;20039;-72
2021/09/07 10:54:53;;;;;;;10.90;3.85;;;28.50;49.50;;;;;;5074425;28;20037;-73
2021/09/07 10:57:38;;;;;;;9.07;3.95;;;28.60;48.70;;;;;;5074699;28;20037;-72
2021/09/07 11:00:19;;;;;;;6.28;4.10;;;28.50;49.10;;;;;;5074353;28;20039;-72
2021/09/07 11:02:52;;;;;;;8.23;4.43;;;28.60;49.20;;;;;;5074497;28;20473;-73
2021/09/07 11:05:17;;;;;;;10.07;3.83;;;28.50;49.60;;;;;;5074436;28;20055;-74
2021/09/07 11:07:45;;;;;;;9.73;4.10;;;28.50;48.70;;;;;;5074200;28;20056;-73
2021/09/07 11:10:17;;;;;;;7.20;3.72;;;28.50;48.80;;;;;;5074651;28;20021;-73
2021/09/07 11:12:53;;;;;;;7.63;4.25;;;28.40;48.80;;;;;;5074038;28;20428;-73
2021/09/07 11:15:22;;;;;;;8.95;3.80;;;28.30;49.40;;;;;;5074495;28;20063;-74
2021/09/07 11:18:04;;;;;;;8.25;3.95;;;28.30;49.20;;;;;;5074115;28;20098;-72
2021/09/07 11:20:34;;;;;;;14.45;4.75;;;28.50;49.10;;;;;;5074530;28;20021;-73
2021/09/07 11:23:15;;;;;;;9.93;4.05;;;28.40;49.50;;;;;;5072278;28;20032;-72
2021/09/07 11:25:43;;;;;;;9.82;4.13;;;28.40;48.80;;;;;;5074432;28;20027;-73
2021/09/07 11:28:12;;;;;;;7.82;3.97;;;28.10;49.30;;;;;;5073785;28;20021;-73
2021/09/07 11:30:43;;;;;;;10.90;4.00;;;28.10;49.80;;;;;;5074032;28;20017;-72
2021/09/07 11:33:33;;;;;;;10.90;4.00;;;28.30;50.10;;;;;;5073993;28;20095;-72
2021/09/07 11:36:00;;;;;;;7.10;3.95;;;28.30;49.90;;;;;;5073658;28;20025;-72
2021/09/07 11:38:30;;;;;;;9.05;4.20;;;28.30;50.00;;;;;;5073613;28;20089;-73
2021/09/07 11:40:59;;;;;;;9.88;4.30;;;28.20;51.20;;;;;;5073808;28;20086;-72
2021/09/07 11:43:42;;;;;;;8.77;4.15;;;28.30;50.00;;;;;;5073452;28;20025;-73
2021/09/07 11:46:23;;;;;;;9.43;4.45;;;28.20;51.40;;;;;;5073740;28;20019;-72
2021/09/07 11:48:50;;;;;;;10.00;4.10;;;28.30;49.90;;;;;;5073417;28;20066;-73
2021/09/07 11:51:19;;;;;;;10.25;4.35;;;28.20;50.40;;;;;;5073379;28;20023;-73
2021/09/07 11:53:45;;;;;;;8.35;4.30;;;28.30;50.80;;;;;;5073639;28;20024;-73
2021/09/07 11:56:26;;;;;;;8.95;4.03;;;28.40;50.20;;;;;;5073380;28;20428;-73
2021/09/07 11:58:52;;;;;;;8.82;4.30;;;28.40;51.20;;;;;;5073419;28;20025;-74
2021/09/07 12:01:28;;;;;;;10.43;4.60;;;28.40;51.50;;;;;;5073248;28;20024;-73
2021/09/07 12:03:59;;;;;;;7.35;3.80;;;28.40;51.50;;;;;;5073780;28;20188;-73
2021/09/07 12:06:42;;;;;;;9.52;4.50;;;28.30;51.00;;;;;;5072961;28;20494;-73
2021/09/07 12:09:19;;;;;;;10.00;4.72;;;28.30;51.00;;;;;;5073204;28;20036;-73
2021/09/07 12:11:48;;;;;;;12.57;4.95;;;28.40;51.60;;;;;;5072807;28;20483;-73
2021/09/07 12:14:21;;;;;;;6.63;4.30;;;28.60;51.30;;;;;;5071648;28;20032;-73
2021/09/07 12:16:53;;;;;;;9.13;3.97;;;28.60;52.20;;;;;;5071551;28;20040;-74
2021/09/07 12:19:28;;;;;;;13.23;4.68;;;28.70;51.10;;;;;;5073048;28;20103;-73
2021/09/07 12:22:22;;;;;;;8.27;4.32;;;28.60;51.20;;;;;;5073062;28;20031;-74
2021/09/07 12:25:13;;;;;;;9.50;4.80;;;28.50;51.30;;;;;;5073019;28;20035;-73
2021/09/07 12:27:53;;;;;;;10.75;4.63;;;28.40;51.90;;;;;;5073543;28;20029;-73
2021/09/07 12:30:20;;;;;;;8.40;4.60;;;28.40;52.30;;;;;;5073264;28;20056;-73
2021/09/07 12:33:08;;;;;;;8.68;4.55;;;28.40;52.50;;;;;;5071651;28;20110;-73
2021/09/07 12:35:41;;;;;;;8.45;4.30;;;28.50;52.20;;;;;;5073256;28;20025;-73
2021/09/07 12:38:14;;;;;;;10.93;4.38;;;28.60;51.90;;;;;;5072910;28;20020;-73
2021/09/07 12:40:46;;;;;;;6.78;4.30;;;28.50;51.80;;;;;;5073390;28;20451;-73
2021/09/07 12:43:19;;;;;;;13.30;4.70;;;28.50;51.90;;;;;;5072807;28;20078;-73
2021/09/07 12:45:48;;;;;;;10.13;4.45;;;28.60;52.10;;;;;;5073164;28;20110;-73
2021/09/07 12:48:14;;;;;;;12.82;4.70;;;28.70;52.30;;;;;;5073100;28;20029;-74
2021/09/07 12:50:40;;;;;;;6.65;4.03;;;28.70;51.40;;;;;;5072800;28;20393;-73
2021/09/07 12:53:07;;;;;;;6.63;4.28;;;28.80;51.40;;;;;;5072762;28;20016;-73